createdAt,value
2019-03-23T00:00:00.517Z,7.90
2019-03-23T00:02:29.235Z,6.37
2019-03-23T00:04:57.947Z,8.77
2019-03-23T00:07:26.785Z,8.87
2019-03-23T00:09:55.492Z,8.70
2019-03-23T00:12:24.252Z,8.83
2019-03-23T00:14:53.190Z,6.40
2019-03-23T00:17:21.950Z,8.77
2019-03-23T00:19:50.654Z,5.87
2019-03-23T00:22:19.333Z,5.77
2019-03-23T00:24:48.228Z,8.27
2019-03-23T00:27:16.964Z,7.83
2019-03-23T00:29:45.631Z,6.87
2019-03-23T00:32:14.323Z,6.80
2019-03-23T00:34:43.037Z,7.80
2019-03-23T00:37:11.710Z,8.53
2019-03-23T00:39:40.423Z,6.27
2019-03-23T00:42:09.168Z,14.03
2019-03-23T00:44:38.026Z,23.10
2019-03-23T00:47:06.827Z,10.20
2019-03-23T00:49:35.563Z,13.20
2019-03-23T00:52:04.288Z,14.23
2019-03-23T00:54:33.050Z,13.83
2019-03-23T00:57:01.933Z,14.30
2019-03-23T00:59:30.763Z,14.83
2019-03-23T01:01:59.434Z,16.93
2019-03-23T01:04:28.136Z,21.40
2019-03-23T01:06:56.815Z,18.33
2019-03-23T01:09:25.550Z,18.10
2019-03-23T01:11:54.321Z,18.50
2019-03-23T01:14:23.051Z,15.60
2019-03-23T01:16:51.726Z,14.83
2019-03-23T01:19:20.423Z,19.83
2019-03-23T01:21:49.135Z,20.20
2019-03-23T01:24:17.822Z,16.67
2019-03-23T01:26:46.559Z,19.90
2019-03-23T01:29:15.223Z,20.70
2019-03-23T01:31:44.040Z,21.10
2019-03-23T01:34:12.734Z,20.60
2019-03-23T01:36:41.446Z,26.83
2019-03-23T01:39:10.394Z,25.53
2019-03-23T01:41:39.075Z,21.13
2019-03-23T01:44:07.773Z,19.50
2019-03-23T01:46:36.474Z,25.73
2019-03-23T01:49:05.193Z,29.67
2019-03-23T01:51:33.912Z,47.50
2019-03-23T01:54:02.741Z,47.87
2019-03-23T01:56:31.445Z,59.27
2019-03-23T01:59:00.184Z,53.93
2019-03-23T02:01:28.864Z,55.70
2019-03-23T02:03:57.539Z,58.57
2019-03-23T02:06:26.255Z,55.57
2019-03-23T02:08:54.925Z,58.97
2019-03-23T02:11:23.689Z,61.43
2019-03-23T02:13:52.360Z,54.43
2019-03-23T02:16:21.074Z,53.23
2019-03-23T02:18:49.814Z,56.63
2019-03-23T02:21:18.477Z,60.53
2019-03-23T02:23:47.198Z,57.00
2019-03-23T02:26:15.885Z,55.90
2019-03-23T02:28:44.573Z,54.97
2019-03-23T02:31:13.282Z,60.13
2019-03-23T02:33:42.198Z,56.97
2019-03-23T02:36:10.916Z,54.77
2019-03-23T02:38:39.597Z,53.27
2019-03-23T02:41:08.294Z,56.73
2019-03-23T02:43:36.978Z,43.80
2019-03-23T02:46:05.639Z,45.27
2019-03-23T02:48:34.348Z,44.90
2019-03-23T02:51:03.019Z,39.93
2019-03-23T02:53:31.827Z,45.13
2019-03-23T02:56:00.514Z,45.90
2019-03-23T02:58:29.422Z,55.93
2019-03-23T03:00:58.110Z,49.97
2019-03-23T03:03:26.819Z,65.57
2019-03-23T03:05:55.505Z,52.73
2019-03-23T03:08:24.200Z,57.63
2019-03-23T03:10:52.914Z,51.40
2019-03-23T03:13:21.637Z,53.93
2019-03-23T03:15:50.329Z,61.60
2019-03-23T03:18:19.051Z,68.60
2019-03-23T03:20:47.766Z,62.47
2019-03-23T03:23:16.490Z,69.70
2019-03-23T03:25:45.199Z,78.93
2019-03-23T03:28:14.196Z,78.53
2019-03-23T03:30:42.877Z,84.17
2019-03-23T03:33:11.786Z,83.80
2019-03-23T03:35:40.698Z,87.20
2019-03-23T03:38:09.385Z,93.33
2019-03-23T03:40:38.088Z,95.80
2019-03-23T03:43:06.943Z,98.80
2019-03-23T03:45:35.660Z,92.37
2019-03-23T03:48:04.566Z,89.03
2019-03-23T03:50:33.210Z,102.20
2019-03-23T03:53:01.898Z,104.93
2019-03-23T03:55:30.575Z,98.13
2019-03-23T03:57:59.279Z,97.50
2019-03-23T04:00:27.951Z,101.43
2019-03-23T04:02:56.900Z,104.03
2019-03-23T04:05:25.646Z,108.30
2019-03-23T04:07:54.463Z,110.87
2019-03-23T04:10:23.181Z,109.23
2019-03-23T04:12:51.838Z,118.57
2019-03-23T04:15:20.557Z,118.00
2019-03-23T04:17:49.269Z,106.47
2019-03-23T04:20:17.982Z,133.67
2019-03-23T04:22:46.723Z,119.03
2019-03-23T04:25:15.430Z,133.20
2019-03-23T04:27:44.131Z,116.20
2019-03-23T04:30:13.240Z,130.80
2019-03-23T04:32:42.002Z,127.73
2019-03-23T04:35:10.776Z,119.07
2019-03-23T04:37:39.526Z,131.50
2019-03-23T04:40:10.779Z,128.13
2019-03-23T04:42:39.444Z,128.23
2019-03-23T04:45:10.703Z,133.40
2019-03-23T04:47:39.372Z,120.83
2019-03-23T04:50:10.922Z,115.03
2019-03-23T04:52:39.768Z,121.67
2019-03-23T04:55:12.855Z,119.73
2019-03-23T04:57:41.565Z,132.17
2019-03-23T05:00:21.260Z,119.80
2019-03-23T05:02:49.947Z,119.83
2019-03-23T05:05:18.667Z,121.10
2019-03-23T05:07:47.348Z,130.47
2019-03-23T05:10:16.037Z,126.40
2019-03-23T05:12:44.804Z,120.23
2019-03-23T05:15:13.999Z,112.13
2019-03-23T05:17:42.699Z,107.70
2019-03-23T05:20:31.471Z,119.10
2019-03-23T05:23:00.167Z,114.83
2019-03-23T05:25:30.297Z,117.27
2019-03-23T05:27:59.273Z,113.03
2019-03-23T05:30:27.957Z,124.83
2019-03-23T05:32:56.704Z,120.33
2019-03-23T05:35:25.381Z,108.47
2019-03-23T05:37:54.063Z,107.90
2019-03-23T05:40:22.792Z,119.10
2019-03-23T05:42:51.522Z,115.03
2019-03-23T05:45:20.202Z,121.30
2019-03-23T05:47:48.930Z,109.57
2019-03-23T05:50:17.639Z,108.33
2019-03-23T05:52:46.514Z,102.17
2019-03-23T05:55:15.236Z,105.10
2019-03-23T05:57:44.085Z,111.37
2019-03-23T06:00:14.902Z,120.93
2019-03-23T06:02:43.631Z,108.37
2019-03-23T06:05:12.479Z,112.53
2019-03-23T06:07:41.235Z,112.00
2019-03-23T06:10:09.944Z,118.20
2019-03-23T06:12:38.920Z,106.50
2019-03-23T06:15:07.833Z,113.87
2019-03-23T06:17:36.617Z,105.67
2019-03-23T06:20:06.931Z,106.00
2019-03-23T06:22:35.608Z,112.00
2019-03-23T06:25:05.911Z,117.20
2019-03-23T06:27:34.572Z,120.30
2019-03-23T06:30:03.498Z,113.20
2019-03-23T06:32:32.230Z,114.93
2019-03-23T06:35:01.239Z,120.07
2019-03-23T06:37:29.965Z,121.07
2019-03-23T06:39:58.748Z,120.33
2019-03-23T06:42:27.499Z,116.40
2019-03-23T06:44:56.224Z,115.10
2019-03-23T06:47:24.942Z,116.30
2019-03-23T06:49:53.611Z,120.63
2019-03-23T06:52:22.335Z,104.27
2019-03-23T06:54:51.041Z,116.93
2019-03-23T06:57:20.069Z,112.00
2019-03-23T06:59:48.742Z,127.07
2019-03-23T07:02:17.446Z,127.37
2019-03-23T07:04:46.210Z,115.03
2019-03-23T07:07:14.911Z,115.63
2019-03-23T07:09:43.632Z,124.63
2019-03-23T07:12:12.346Z,119.97
2019-03-23T07:14:41.030Z,113.83
2019-03-23T07:17:09.821Z,113.80
2019-03-23T07:19:38.515Z,108.37
2019-03-23T07:22:07.210Z,116.17
2019-03-23T07:24:35.941Z,121.77
2019-03-23T07:27:04.667Z,118.90
2019-03-23T07:29:33.437Z,119.77
2019-03-23T07:32:06.087Z,120.60
2019-03-23T07:34:32.617Z,111.27
2019-03-23T07:37:01.391Z,124.93
2019-03-23T07:39:30.528Z,113.80
2019-03-23T07:41:59.529Z,108.13
2019-03-23T07:44:28.241Z,110.73
2019-03-23T07:46:57.073Z,113.33
2019-03-23T07:49:25.753Z,114.27
2019-03-23T07:51:54.447Z,108.83
2019-03-23T07:54:23.137Z,103.20
2019-03-23T07:56:51.839Z,100.80
2019-03-23T07:59:20.636Z,106.07
2019-03-23T08:01:49.320Z,94.07
2019-03-23T08:04:18.132Z,105.43
2019-03-23T08:06:46.863Z,108.13
2019-03-23T08:09:20.506Z,99.07
2019-03-23T08:11:45.949Z,99.37
2019-03-23T08:14:14.668Z,94.23
2019-03-23T08:16:43.360Z,92.13
2019-03-23T08:19:12.301Z,91.00
2019-03-23T08:21:40.996Z,96.87
2019-03-23T08:24:09.723Z,90.50
2019-03-23T08:26:38.401Z,98.27
2019-03-23T08:29:07.144Z,99.33
2019-03-23T08:31:35.895Z,93.40
2019-03-23T08:34:04.603Z,98.37
2019-03-23T08:36:33.334Z,100.17
2019-03-23T08:39:07.036Z,99.50
2019-03-23T08:41:35.787Z,89.97
2019-03-23T08:44:04.679Z,103.40
2019-03-23T08:46:33.429Z,96.87
2019-03-23T08:49:02.169Z,87.63
2019-03-23T08:51:31.100Z,85.67
2019-03-23T08:53:59.772Z,89.07
2019-03-23T08:56:28.480Z,91.10
2019-03-23T08:58:57.163Z,98.87
2019-03-23T09:01:25.864Z,90.53
2019-03-23T09:03:54.931Z,86.73
2019-03-23T09:06:24.988Z,90.90
2019-03-23T09:08:53.682Z,86.10
2019-03-23T09:11:22.412Z,87.00
2019-03-23T09:13:51.135Z,84.70
2019-03-23T09:16:19.844Z,86.27
2019-03-23T09:18:48.529Z,86.27
2019-03-23T09:21:17.270Z,89.60
2019-03-23T09:23:46.010Z,86.30
2019-03-23T09:26:14.782Z,89.90
2019-03-23T09:28:43.511Z,93.80
2019-03-23T09:31:12.214Z,89.97
2019-03-23T09:33:40.906Z,88.03
2019-03-23T09:36:09.601Z,91.53
2019-03-23T09:38:38.313Z,97.13
2019-03-23T09:41:07.234Z,93.10
2019-03-23T09:43:35.909Z,100.00
2019-03-23T09:46:04.906Z,99.80
2019-03-23T09:48:33.593Z,92.43
2019-03-23T09:51:02.510Z,95.97
2019-03-23T09:53:31.185Z,94.60
2019-03-23T09:55:59.901Z,90.80
2019-03-23T09:58:28.656Z,94.17
2019-03-23T10:00:57.431Z,89.57
2019-03-23T10:03:26.162Z,86.50
2019-03-23T10:05:54.862Z,91.33
2019-03-23T10:08:23.565Z,88.90
2019-03-23T10:10:52.306Z,93.60
2019-03-23T10:13:21.024Z,97.43
2019-03-23T10:15:49.726Z,92.00
2019-03-23T10:18:18.544Z,85.43
2019-03-23T10:20:47.242Z,91.60
2019-03-23T10:23:15.945Z,95.80
2019-03-23T10:25:44.826Z,88.70
2019-03-23T10:28:13.494Z,86.10
2019-03-23T10:30:42.219Z,84.03
2019-03-23T10:33:11.038Z,89.67
2019-03-23T10:35:39.736Z,89.27
2019-03-23T10:38:08.521Z,83.87
2019-03-23T10:40:37.412Z,96.03
2019-03-23T10:43:06.134Z,87.60
2019-03-23T10:45:43.813Z,88.47
2019-03-23T10:48:08.447Z,87.00
2019-03-23T10:50:37.155Z,89.57
2019-03-23T10:53:05.845Z,85.57
2019-03-23T10:55:37.371Z,98.17
2019-03-23T10:58:06.143Z,91.97
2019-03-23T11:00:34.863Z,88.53
2019-03-23T11:03:03.610Z,93.13
2019-03-23T11:05:32.320Z,89.80
2019-03-23T11:08:01.120Z,92.10
2019-03-23T11:10:29.812Z,96.13
2019-03-23T11:12:58.615Z,91.27
2019-03-23T11:15:27.310Z,88.17
2019-03-23T11:17:56.010Z,93.17
2019-03-23T11:20:24.687Z,96.33
2019-03-23T11:22:53.382Z,95.17
2019-03-23T11:25:22.373Z,91.37
2019-03-23T11:27:51.282Z,87.67
2019-03-23T11:30:19.949Z,89.40
2019-03-23T11:32:48.968Z,96.57
2019-03-23T11:35:17.723Z,89.03
2019-03-23T11:37:46.794Z,88.67
2019-03-23T11:40:15.686Z,100.93
2019-03-23T11:42:49.958Z,74.73
2019-03-23T11:45:16.011Z,72.40
2019-03-23T11:47:44.821Z,64.23
2019-03-23T11:50:13.615Z,63.03
2019-03-23T11:52:42.330Z,66.80
2019-03-23T11:55:11.206Z,59.77
2019-03-23T11:57:40.118Z,60.77
2019-03-23T12:00:11.741Z,62.13
2019-03-23T12:02:40.447Z,57.67
2019-03-23T12:05:09.728Z,61.07
2019-03-23T12:07:38.452Z,57.70
2019-03-23T12:10:13.863Z,63.47
2019-03-23T12:12:42.566Z,57.47
2019-03-23T12:15:12.595Z,65.57
2019-03-23T12:17:41.321Z,56.10
2019-03-23T12:20:10.606Z,56.27
2019-03-23T12:22:39.330Z,59.00
2019-03-23T12:25:08.427Z,56.30
2019-03-23T12:27:37.152Z,58.57
2019-03-23T12:30:08.211Z,54.23
2019-03-23T12:32:36.910Z,55.27
2019-03-23T12:35:07.407Z,53.40
2019-03-23T12:37:36.090Z,51.00
2019-03-23T12:40:07.249Z,47.53
2019-03-23T12:42:35.969Z,46.63
2019-03-23T12:45:06.117Z,43.90
2019-03-23T12:47:41.084Z,43.23
2019-03-23T12:50:11.658Z,48.03
2019-03-23T12:52:40.476Z,42.87
2019-03-23T12:55:10.119Z,39.10
2019-03-23T12:57:38.888Z,42.30
2019-03-23T13:00:10.569Z,44.50
2019-03-23T13:02:39.276Z,42.37
2019-03-23T13:05:08.255Z,41.57
2019-03-23T13:07:36.934Z,39.93
2019-03-23T13:10:07.912Z,37.97
2019-03-23T13:12:36.740Z,43.60
2019-03-23T13:15:13.430Z,46.83
2019-03-23T13:17:42.128Z,38.47
2019-03-23T13:20:11.644Z,44.03
2019-03-23T13:22:40.431Z,43.70
2019-03-23T13:25:09.918Z,42.97
2019-03-23T13:27:38.911Z,36.50
2019-03-23T13:30:13.433Z,36.93
2019-03-23T13:32:42.147Z,34.90
2019-03-23T13:35:11.275Z,41.57
2019-03-23T13:37:42.365Z,37.80
2019-03-23T13:40:12.473Z,37.97
2019-03-23T13:42:41.172Z,37.03
2019-03-23T13:45:10.652Z,37.60
2019-03-23T13:47:39.654Z,40.30
2019-03-23T13:50:09.834Z,37.07
2019-03-23T13:52:38.558Z,43.33
2019-03-23T13:55:09.607Z,40.90
2019-03-23T13:57:38.681Z,34.87
2019-03-23T14:00:11.134Z,34.57
2019-03-23T14:02:59.154Z,38.83
2019-03-23T14:05:28.023Z,44.83
2019-03-23T14:07:56.728Z,41.57
2019-03-23T14:10:25.408Z,39.43
2019-03-23T14:12:54.119Z,39.17
2019-03-23T14:15:22.802Z,41.77
2019-03-23T14:17:51.514Z,36.07
2019-03-23T14:20:20.212Z,43.40
2019-03-23T14:22:48.963Z,40.67
2019-03-23T14:25:17.671Z,36.53
2019-03-23T14:27:46.407Z,29.73
2019-03-23T14:30:15.214Z,31.10
2019-03-23T14:32:43.968Z,30.60
2019-03-23T14:35:12.630Z,33.87
2019-03-23T14:37:41.339Z,37.50
2019-03-23T14:40:11.211Z,40.47
2019-03-23T14:42:39.928Z,36.17
2019-03-23T14:45:09.331Z,33.20
2019-03-23T14:47:39.375Z,35.23
2019-03-23T14:50:08.618Z,38.10
2019-03-23T14:52:37.297Z,34.83
2019-03-23T14:55:07.221Z,39.47
2019-03-23T14:57:35.980Z,36.27
2019-03-23T15:00:07.428Z,35.70
2019-03-23T15:02:36.171Z,48.23
2019-03-23T15:05:07.150Z,39.43
2019-03-23T15:07:35.917Z,38.07
2019-03-23T15:10:07.532Z,34.93
2019-03-23T15:12:36.208Z,38.87
2019-03-23T15:15:06.962Z,47.13
2019-03-23T15:17:35.672Z,39.87
2019-03-23T15:20:05.947Z,40.63
2019-03-23T15:22:34.630Z,49.67
2019-03-23T15:25:03.728Z,41.60
2019-03-23T15:27:32.411Z,39.90
2019-03-23T15:30:02.983Z,44.83
2019-03-23T15:32:31.665Z,38.23
2019-03-23T15:35:00.536Z,42.37
2019-03-23T15:37:29.224Z,39.43
2019-03-23T15:39:57.928Z,45.60
2019-03-23T15:42:26.806Z,43.50
2019-03-23T15:45:14.841Z,40.60
2019-03-23T15:47:43.534Z,49.60
2019-03-23T15:50:12.725Z,44.53
2019-03-23T15:52:41.441Z,42.60
2019-03-23T15:55:10.509Z,44.10
2019-03-23T15:57:39.535Z,45.10
2019-03-23T16:00:10.157Z,43.13
2019-03-23T16:02:38.832Z,42.00
2019-03-23T16:05:08.956Z,49.03
2019-03-23T16:07:37.911Z,45.57
2019-03-23T16:10:08.424Z,42.17
2019-03-23T16:12:37.903Z,40.13
2019-03-23T16:15:09.273Z,46.50
2019-03-23T16:17:37.953Z,48.33
2019-03-23T16:20:09.575Z,43.43
2019-03-23T16:22:38.448Z,40.50
2019-03-23T16:25:08.252Z,38.83
2019-03-23T16:27:36.930Z,42.70
2019-03-23T16:30:10.991Z,39.97
2019-03-23T16:32:39.674Z,49.40
2019-03-23T16:35:08.969Z,40.63
2019-03-23T16:37:37.741Z,43.30
2019-03-23T16:40:10.470Z,41.13
2019-03-23T16:42:45.188Z,48.90
2019-03-23T16:45:10.693Z,43.30
2019-03-23T16:47:39.482Z,43.63
2019-03-23T16:50:09.889Z,47.30
2019-03-23T16:52:39.043Z,47.30
2019-03-23T16:55:09.765Z,46.47
2019-03-23T16:57:38.504Z,47.97
2019-03-23T17:00:10.525Z,48.87
2019-03-23T17:02:39.258Z,50.33
2019-03-23T17:05:08.802Z,44.37
2019-03-23T17:07:37.530Z,57.40
2019-03-23T17:10:07.965Z,53.60
2019-03-23T17:12:36.891Z,55.77
2019-03-23T17:15:07.551Z,46.20
2019-03-23T17:17:36.617Z,49.03
2019-03-23T17:20:05.975Z,47.30
2019-03-23T17:22:35.054Z,45.80
2019-03-23T17:25:06.014Z,48.73
2019-03-23T17:27:34.766Z,46.63
2019-03-23T17:30:05.273Z,49.03
2019-03-23T17:32:34.005Z,46.87
2019-03-23T17:35:02.707Z,46.70
2019-03-23T17:37:31.395Z,51.00
2019-03-23T17:40:00.346Z,49.67
2019-03-23T17:42:29.234Z,46.87
2019-03-23T17:44:57.939Z,51.73
2019-03-23T17:47:26.675Z,48.33
2019-03-23T17:49:57.205Z,49.17
2019-03-23T17:52:25.817Z,51.20
2019-03-23T17:54:54.542Z,50.87
2019-03-23T17:57:23.298Z,54.13
2019-03-23T17:59:52.069Z,50.30
2019-03-23T18:02:20.985Z,54.27
2019-03-23T18:04:49.693Z,53.87
2019-03-23T18:07:18.416Z,54.10
2019-03-23T18:09:47.131Z,52.10
2019-03-23T18:12:16.043Z,52.03
2019-03-23T18:14:44.746Z,50.87
2019-03-23T18:17:13.517Z,51.00
2019-03-23T18:19:42.206Z,46.00
2019-03-23T18:22:10.919Z,48.43
2019-03-23T18:24:39.645Z,45.87
2019-03-23T18:27:08.359Z,53.93
2019-03-23T18:29:37.228Z,50.23
2019-03-23T18:32:08.870Z,48.83
2019-03-23T18:34:37.595Z,51.90
2019-03-23T18:37:06.277Z,49.87
2019-03-23T18:39:34.988Z,52.93
2019-03-23T18:42:03.717Z,52.40
2019-03-23T18:44:32.411Z,54.70
2019-03-23T18:47:01.352Z,51.40
2019-03-23T18:49:30.102Z,54.60
2019-03-23T18:51:58.830Z,55.20
2019-03-23T18:54:27.559Z,48.77
2019-03-23T18:56:59.023Z,50.03
2019-03-23T18:59:27.761Z,46.30
2019-03-23T19:01:56.939Z,41.70
2019-03-23T19:04:27.928Z,40.70
2019-03-23T19:06:56.661Z,39.80
2019-03-23T19:09:25.580Z,34.40
2019-03-23T19:11:54.488Z,30.87
2019-03-23T19:14:23.234Z,25.47
2019-03-23T19:16:51.961Z,26.07
2019-03-23T19:19:20.655Z,21.93
2019-03-23T19:21:49.349Z,21.73
2019-03-23T19:24:18.062Z,18.73
2019-03-23T19:26:48.709Z,26.83
2019-03-23T19:29:17.459Z,24.00
2019-03-23T19:31:46.219Z,20.97
2019-03-23T19:34:15.170Z,20.03
2019-03-23T19:36:43.905Z,22.47
2019-03-23T19:39:12.692Z,19.30
2019-03-23T19:41:42.619Z,20.67
2019-03-23T19:44:11.397Z,19.10
2019-03-23T19:46:40.116Z,23.60
2019-03-23T19:49:08.823Z,19.30
2019-03-23T19:51:37.572Z,19.27
2019-03-23T19:54:06.335Z,20.10
2019-03-23T19:56:35.063Z,20.80
2019-03-23T19:59:03.768Z,19.57
2019-03-23T20:01:32.561Z,18.30
2019-03-23T20:04:01.325Z,21.30
2019-03-23T20:06:30.040Z,25.60
2019-03-23T20:08:59.486Z,24.83
2019-03-23T20:11:28.465Z,24.00
2019-03-23T20:13:59.200Z,25.27
2019-03-23T20:16:28.170Z,22.00
2019-03-23T20:18:57.041Z,21.23
2019-03-23T20:21:25.850Z,22.53
2019-03-23T20:23:54.551Z,26.20
2019-03-23T20:26:25.118Z,21.00
2019-03-23T20:28:53.791Z,26.43
2019-03-23T20:31:22.562Z,25.63
2019-03-23T20:33:51.288Z,22.77
2019-03-23T20:36:20.151Z,25.53
2019-03-23T20:38:48.914Z,24.20
2019-03-23T20:41:17.611Z,25.43
2019-03-23T20:43:46.321Z,24.90
2019-03-23T20:46:15.120Z,23.03
2019-03-23T20:48:44.232Z,24.70
2019-03-23T20:51:13.156Z,26.03
2019-03-23T20:53:42.022Z,26.13
2019-03-23T20:56:10.818Z,27.27
2019-03-23T20:58:39.651Z,21.27
2019-03-23T21:01:09.814Z,23.30
2019-03-23T21:03:38.545Z,22.13
2019-03-23T21:06:07.277Z,25.10
2019-03-23T21:08:36.099Z,23.47
2019-03-23T21:11:04.839Z,20.00
2019-03-23T21:13:33.719Z,20.30
2019-03-23T21:16:02.423Z,25.50
2019-03-23T21:18:31.146Z,20.43
2019-03-23T21:20:59.876Z,23.23
2019-03-23T21:23:28.628Z,22.00
2019-03-23T21:25:57.609Z,23.77
2019-03-23T21:28:26.371Z,18.73
2019-03-23T21:30:55.323Z,16.13
2019-03-23T21:33:24.040Z,16.23
2019-03-23T21:35:52.726Z,13.90
2019-03-23T21:38:21.427Z,13.23
2019-03-23T21:40:50.136Z,10.50
2019-03-23T21:43:18.812Z,13.80
2019-03-23T21:45:47.533Z,11.83
2019-03-23T21:48:16.227Z,14.53
2019-03-23T21:50:47.753Z,12.57
2019-03-23T21:53:15.333Z,11.37
2019-03-23T21:55:44.051Z,14.17
2019-03-23T21:58:12.718Z,10.13
2019-03-23T22:00:41.459Z,10.30
2019-03-23T22:03:10.138Z,8.20
2019-03-23T22:05:40.213Z,14.20
2019-03-23T22:08:08.964Z,13.77
2019-03-23T22:10:37.744Z,14.20
2019-03-23T22:13:06.468Z,10.87
2019-03-23T22:15:35.136Z,13.00
2019-03-23T22:18:04.522Z,7.47
2019-03-23T22:20:33.205Z,9.40
2019-03-23T22:23:01.892Z,10.07
2019-03-23T22:25:30.576Z,12.93
2019-03-23T22:28:00.176Z,7.10
2019-03-23T22:30:28.878Z,10.80
2019-03-23T22:32:57.611Z,9.97
2019-03-23T22:35:26.282Z,8.93
2019-03-23T22:37:54.994Z,11.63
2019-03-23T22:40:23.658Z,12.17
2019-03-23T22:42:52.392Z,11.53
2019-03-23T22:45:21.062Z,13.37
2019-03-23T22:47:49.768Z,9.70
2019-03-23T22:50:18.424Z,11.07
2019-03-23T22:52:47.230Z,10.40
2019-03-23T22:55:15.906Z,8.97
2019-03-23T22:57:44.718Z,8.60
2019-03-23T23:00:17.462Z,12.17
2019-03-23T23:02:48.004Z,10.07
2019-03-23T23:05:16.670Z,10.93
2019-03-23T23:07:46.076Z,7.97
2019-03-23T23:10:14.759Z,10.23
2019-03-23T23:12:43.457Z,9.97
2019-03-23T23:15:12.504Z,7.80
2019-03-23T23:17:41.389Z,9.87
2019-03-23T23:20:10.600Z,10.87
2019-03-23T23:22:39.265Z,9.10
2019-03-23T23:25:08.565Z,13.93
2019-03-23T23:27:37.426Z,15.17
2019-03-23T23:30:08.583Z,13.03
2019-03-23T23:32:37.566Z,10.30
2019-03-23T23:35:08.802Z,8.40
2019-03-23T23:37:37.500Z,14.30
2019-03-23T23:40:07.701Z,14.07
2019-03-23T23:42:36.386Z,14.90
2019-03-23T23:45:15.500Z,9.40
2019-03-23T23:47:38.143Z,15.10
2019-03-23T23:50:07.542Z,14.60
2019-03-23T23:52:36.228Z,10.10
2019-03-23T23:55:06.510Z,17.57
2019-03-23T23:57:35.179Z,10.50
